Time;durP1;ratioP1;P1;durP2;ratioP2;P2;SDS_P1;SDS_P2;PMS_P1;PMS_P2;Temp;Humidity;BMP_temperature;BMP_pressure;BME280_temperature;BME280_humidity;BME280_pressure;Samples;Min_cycle;Max_cycle;Signal;HPM_P1;HPM_P2
2021/03/04 00:00:01;;;;;;;49.00;31.17;;;8.20;99.90;;;;;;5094728;28;20471;-65
2021/03/04 00:02:28;;;;;;;44.27;29.43;;;8.10;99.90;;;;;;5095761;28;20389;-65
2021/03/04 00:04:53;;;;;;;42.43;29.67;;;8.10;99.90;;;;;;5095858;28;20707;-65
2021/03/04 00:07:19;;;;;;;37.57;29.23;;;8.10;99.90;;;;;;5096066;28;20383;-65
2021/03/04 00:09:44;;;;;;;39.50;28.90;;;8.10;99.90;;;;;;5095851;28;20400;-65
2021/03/04 00:12:10;;;;;;;42.00;29.03;;;8.10;99.90;;;;;;5095562;28;20631;-65
2021/03/04 00:14:36;;;;;;;35.20;27.27;;;8.10;99.90;;;;;;5095457;28;20274;-65
2021/03/04 00:17:01;;;;;;;41.90;30.17;;;8.10;99.90;;;;;;5095458;28;20155;-65
2021/03/04 00:19:27;;;;;;;41.77;28.93;;;8.10;99.90;;;;;;5095436;28;20181;-65
2021/03/04 00:21:52;;;;;;;42.10;29.90;;;8.10;99.90;;;;;;5095433;28;20158;-65
2021/03/04 00:24:18;;;;;;;44.63;31.07;;;8.10;99.90;;;;;;5095628;28;20163;-65
2021/03/04 00:26:44;;;;;;;44.73;33.40;;;8.10;99.90;;;;;;5095457;28;20161;-65
2021/03/04 00:29:13;;;;;;;42.87;31.67;;;8.10;99.90;;;;;;5095124;28;20182;-65
2021/03/04 00:31:39;;;;;;;43.30;32.50;;;8.00;99.90;;;;;;5095379;28;20391;-65
2021/03/04 00:34:04;;;;;;;45.63;33.57;;;8.00;99.90;;;;;;5095169;28;20419;-65
2021/03/04 00:36:30;;;;;;;45.33;31.50;;;8.00;99.90;;;;;;5095198;28;20154;-65
2021/03/04 00:38:55;;;;;;;43.80;31.87;;;8.00;99.90;;;;;;5095332;28;20569;-65
2021/03/04 00:41:21;;;;;;;39.00;31.63;;;8.00;99.90;;;;;;5095030;28;20176;-65
2021/03/04 00:43:46;;;;;;;41.93;32.93;;;8.00;99.90;;;;;;5095135;28;20209;-65
2021/03/04 00:46:12;;;;;;;47.97;34.83;;;8.00;99.90;;;;;;5095048;28;20754;-65
2021/03/04 00:48:37;;;;;;;44.80;31.80;;;8.00;99.90;;;;;;5094946;28;20196;-65
2021/03/04 00:51:03;;;;;;;49.43;36.00;;;8.00;99.90;;;;;;5094817;28;20679;-65
2021/03/04 00:53:28;;;;;;;52.33;35.20;;;8.00;99.90;;;;;;5095132;28;20622;-65
2021/03/04 00:55:54;;;;;;;47.87;33.90;;;8.00;99.90;;;;;;5094756;28;20178;-65
2021/03/04 00:58:19;;;;;;;47.63;32.50;;;7.90;99.90;;;;;;5094942;28;20169;-65
2021/03/04 01:00:45;;;;;;;46.10;34.10;;;7.90;99.90;;;;;;5094743;28;20243;-65
2021/03/04 01:03:10;;;;;;;49.37;34.03;;;7.90;99.90;;;;;;5094575;28;20177;-65
2021/03/04 01:05:36;;;;;;;50.53;34.83;;;7.90;99.90;;;;;;5094581;28;20169;-65
2021/03/04 01:08:02;;;;;;;50.13;36.97;;;7.90;99.90;;;;;;5093255;28;20649;-65
2021/03/04 01:10:33;;;;;;;51.90;36.83;;;7.90;99.90;;;;;;5094676;28;20170;-65
2021/03/04 01:12:59;;;;;;;47.87;35.33;;;7.90;99.90;;;;;;5093193;28;20192;-65
2021/03/04 01:15:25;;;;;;;49.53;35.67;;;7.90;99.90;;;;;;5094336;28;20519;-65
2021/03/04 01:17:51;;;;;;;53.33;35.00;;;7.90;99.90;;;;;;5094114;28;20526;-65
2021/03/04 01:20:18;;;;;;;53.00;36.20;;;7.90;99.90;;;;;;5092927;28;20542;-65
2021/03/04 01:22:44;;;;;;;47.97;36.80;;;7.90;99.90;;;;;;5093256;28;20391;-65
2021/03/04 01:25:10;;;;;;;46.70;35.57;;;7.90;99.90;;;;;;5093030;28;20403;-65
2021/03/04 01:27:37;;;;;;;55.40;35.90;;;7.90;99.90;;;;;;5093312;28;20399;-65
2021/03/04 01:30:05;;;;;;;51.10;35.87;;;7.90;99.90;;;;;;5093995;28;20488;-65
2021/03/04 01:32:31;;;;;;;48.10;36.60;;;7.90;99.90;;;;;;5093008;28;20403;-65
2021/03/04 01:34:56;;;;;;;50.00;36.17;;;7.90;99.90;;;;;;5092595;28;20542;-65
2021/03/04 01:37:22;;;;;;;52.40;35.50;;;7.90;99.90;;;;;;5093926;28;20177;-65
2021/03/04 01:39:47;;;;;;;46.43;34.07;;;7.90;99.90;;;;;;5093831;28;20683;-65
2021/03/04 01:42:13;;;;;;;49.43;35.77;;;7.90;99.90;;;;;;5093990;28;20159;-65
2021/03/04 01:44:38;;;;;;;42.73;32.50;;;7.90;99.90;;;;;;5093823;28;20593;-65
2021/03/04 01:47:05;;;;;;;45.90;34.57;;;7.90;99.90;;;;;;5093673;28;20202;-65
2021/03/04 01:49:31;;;;;;;48.40;33.93;;;7.90;99.90;;;;;;5093994;28;20166;-65
2021/03/04 01:51:57;;;;;;;52.47;34.70;;;8.00;99.90;;;;;;5093930;28;20430;-65
2021/03/04 01:54:23;;;;;;;46.90;35.60;;;8.00;99.90;;;;;;5093569;28;20236;-65
2021/03/04 01:56:49;;;;;;;46.97;35.70;;;8.00;99.90;;;;;;5093550;28;20161;-65
2021/03/04 01:59:15;;;;;;;49.40;33.73;;;8.00;99.90;;;;;;5093546;28;20395;-65
2021/03/04 02:01:41;;;;;;;48.90;35.73;;;8.00;99.90;;;;;;5093523;28;20878;-65
2021/03/04 02:04:07;;;;;;;54.60;34.30;;;8.10;99.90;;;;;;5093678;28;20395;-65
2021/03/04 02:06:56;;;;;;;49.70;34.03;;;8.00;99.90;;;;;;5093045;28;20162;-65
2021/03/04 02:09:25;;;;;;;50.90;35.77;;;8.00;99.90;;;;;;5092680;28;20241;-65
2021/03/04 02:11:54;;;;;;;50.57;34.53;;;8.00;99.90;;;;;;5091993;28;20459;-65
2021/03/04 02:14:30;;;;;;;46.50;35.77;;;8.00;99.90;;;;;;5093110;28;20746;-65
2021/03/04 02:17:00;;;;;;;52.60;35.20;;;8.00;99.90;;;;;;5093331;28;20873;-65
2021/03/04 02:19:49;;;;;;;49.33;35.43;;;7.90;99.90;;;;;;5093153;28;20443;-65
2021/03/04 02:22:45;;;;;;;50.47;35.07;;;7.90;99.90;;;;;;5092447;28;20753;-65
2021/03/04 02:25:33;;;;;;;45.00;36.73;;;8.00;99.90;;;;;;5092112;28;20387;-65
2021/03/04 02:28:00;;;;;;;49.10;36.67;;;8.00;99.90;;;;;;5091989;28;20415;-65
2021/03/04 02:30:32;;;;;;;49.87;37.00;;;8.00;99.90;;;;;;5093125;28;20393;-65
2021/03/04 02:33:05;;;;;;;53.30;35.20;;;8.00;99.90;;;;;;5093189;28;20483;-65
2021/03/04 02:35:33;;;;;;;55.27;36.30;;;8.10;99.90;;;;;;5092925;28;20499;-65
2021/03/04 02:38:02;;;;;;;48.97;34.70;;;8.10;99.90;;;;;;5093338;28;20395;-65
2021/03/04 02:40:31;;;;;;;45.57;33.70;;;8.10;99.90;;;;;;5093021;28;20396;-65
2021/03/04 02:42:58;;;;;;;52.10;35.13;;;8.10;99.90;;;;;;5092947;28;20389;-65
2021/03/04 02:45:25;;;;;;;48.20;34.13;;;8.00;99.90;;;;;;5092742;28;20447;-65
2021/03/04 02:47:52;;;;;;;44.87;34.97;;;8.10;99.90;;;;;;5093155;28;20388;-65
2021/03/04 02:50:18;;;;;;;42.33;33.87;;;8.00;99.90;;;;;;5093123;28;20545;-65
2021/03/04 02:52:45;;;;;;;54.67;35.87;;;8.00;99.90;;;;;;5092659;28;20845;-65
2021/03/04 02:55:12;;;;;;;54.03;36.03;;;8.00;99.90;;;;;;5092734;28;20447;-65
2021/03/04 02:57:41;;;;;;;50.63;36.20;;;8.00;99.90;;;;;;5092846;28;20396;-65
2021/03/04 03:00:09;;;;;;;46.10;33.23;;;8.00;99.90;;;;;;5092994;28;20424;-65
2021/03/04 03:02:36;;;;;;;52.80;37.03;;;8.10;99.90;;;;;;5091716;28;20773;-65
2021/03/04 03:05:04;;;;;;;47.40;33.30;;;8.10;99.90;;;;;;5091787;28;20395;-65
2021/03/04 03:07:31;;;;;;;59.63;35.00;;;8.10;99.90;;;;;;5092768;28;20474;-65
2021/03/04 03:09:57;;;;;;;57.33;35.87;;;8.00;99.90;;;;;;5092689;28;20851;-65
2021/03/04 03:12:23;;;;;;;53.13;37.50;;;8.00;99.90;;;;;;5092649;28;20491;-65
2021/03/04 03:14:49;;;;;;;46.53;35.60;;;7.90;99.90;;;;;;5093075;28;20457;-65
2021/03/04 03:17:14;;;;;;;48.03;36.53;;;7.90;99.90;;;;;;5093973;28;20392;-65
2021/03/04 03:19:40;;;;;;;52.00;35.30;;;7.80;99.90;;;;;;5096353;28;20181;-65
2021/03/04 03:22:07;;;;;;;58.10;36.90;;;7.80;99.90;;;;;;5096749;28;20622;-65
2021/03/04 03:24:32;;;;;;;50.13;35.80;;;7.80;99.90;;;;;;5096372;28;20581;-65
2021/03/04 03:26:58;;;;;;;55.30;35.77;;;7.80;99.90;;;;;;5096833;28;20407;-65
2021/03/04 03:29:23;;;;;;;61.43;39.07;;;7.80;99.90;;;;;;5096605;28;20187;-65
2021/03/04 03:31:53;;;;;;;50.03;38.63;;;7.80;99.90;;;;;;5096380;28;20196;-65
2021/03/04 03:34:19;;;;;;;55.63;39.33;;;7.80;99.90;;;;;;5096700;28;20193;-66
2021/03/04 03:36:47;;;;;;;55.20;37.87;;;7.80;99.90;;;;;;5096024;28;20467;-66
2021/03/04 03:39:14;;;;;;;55.67;38.90;;;7.80;99.90;;;;;;5096190;28;20403;-66
2021/03/04 03:41:42;;;;;;;51.70;36.80;;;7.80;99.90;;;;;;5096351;28;20507;-66
2021/03/04 03:44:10;;;;;;;55.90;40.00;;;7.80;99.90;;;;;;5095440;28;20880;-66
2021/03/04 03:46:36;;;;;;;54.33;39.10;;;7.70;99.90;;;;;;5094671;28;20480;-66
2021/03/04 03:49:05;;;;;;;59.57;37.70;;;7.70;99.90;;;;;;5096127;28;20404;-66
2021/03/04 03:51:33;;;;;;;50.73;39.10;;;7.70;99.90;;;;;;5096654;28;20442;-65
2021/03/04 03:54:01;;;;;;;53.43;39.47;;;7.70;99.90;;;;;;5094417;28;20552;-65
2021/03/04 03:56:29;;;;;;;58.10;39.77;;;7.70;99.90;;;;;;5094457;28;20442;-65
2021/03/04 03:58:58;;;;;;;51.10;36.47;;;7.60;99.90;;;;;;5096092;28;20396;-65
2021/03/04 04:01:26;;;;;;;55.23;41.57;;;7.60;99.90;;;;;;5095700;28;20386;-65
2021/03/04 04:03:55;;;;;;;53.83;40.23;;;7.60;99.90;;;;;;5095722;28;20391;-65
2021/03/04 04:06:21;;;;;;;57.20;42.20;;;7.60;99.90;;;;;;5094616;28;20389;-65
2021/03/04 04:08:47;;;;;;;60.50;43.73;;;7.60;99.90;;;;;;5095412;28;20404;-65
2021/03/04 04:11:13;;;;;;;53.27;42.87;;;7.60;99.90;;;;;;5095886;28;20654;-65
2021/03/04 04:13:38;;;;;;;53.40;41.40;;;7.60;99.90;;;;;;5095563;28;20459;-65
2021/03/04 04:16:05;;;;;;;60.43;41.87;;;7.60;99.90;;;;;;5095264;28;20289;-65
2021/03/04 04:18:31;;;;;;;61.57;43.07;;;7.50;99.90;;;;;;5095399;28;20702;-65
2021/03/04 04:20:56;;;;;;;58.03;44.10;;;7.50;99.90;;;;;;5095324;28;20957;-65
2021/03/04 04:23:22;;;;;;;65.87;45.57;;;7.50;99.90;;;;;;5095327;28;20392;-65
2021/03/04 04:25:50;;;;;;;63.30;46.10;;;7.40;99.90;;;;;;5095267;28;20247;-65
2021/03/04 04:28:16;;;;;;;58.43;42.23;;;7.40;99.90;;;;;;5094008;28;20407;-65
2021/03/04 04:30:42;;;;;;;60.00;42.07;;;7.30;99.90;;;;;;5095083;28;20771;-65
2021/03/04 04:33:08;;;;;;;54.30;42.00;;;7.30;99.90;;;;;;5095230;28;20383;-65
2021/03/04 04:35:33;;;;;;;53.80;41.23;;;7.30;99.90;;;;;;5095041;28;20205;-65
2021/03/04 04:37:59;;;;;;;54.13;42.30;;;7.30;99.90;;;;;;5095263;28;20157;-65
2021/03/04 04:40:24;;;;;;;62.00;43.30;;;7.30;99.90;;;;;;5095209;28;20153;-65
2021/03/04 04:42:50;;;;;;;56.10;42.20;;;7.30;99.90;;;;;;5093817;28;20252;-65
2021/03/04 04:45:15;;;;;;;55.00;39.80;;;7.20;99.90;;;;;;5094768;28;20170;-65
2021/03/04 04:47:41;;;;;;;58.20;39.73;;;7.30;99.90;;;;;;5094967;28;20161;-65
2021/03/04 04:50:06;;;;;;;56.87;39.40;;;7.30;99.90;;;;;;5094824;28;20157;-65
2021/03/04 04:52:32;;;;;;;52.00;39.53;;;7.30;99.90;;;;;;5094919;28;20166;-65
2021/03/04 04:54:57;;;;;;;64.30;41.67;;;7.40;99.90;;;;;;5094734;28;20581;-65
2021/03/04 04:57:25;;;;;;;53.00;40.87;;;7.40;99.90;;;;;;5094820;28;20161;-65
2021/03/04 04:59:50;;;;;;;57.37;39.90;;;7.50;99.90;;;;;;5094428;28;20691;-65
2021/03/04 05:02:16;;;;;;;56.33;40.30;;;7.50;99.90;;;;;;5094909;28;20396;-65
2021/03/04 05:04:41;;;;;;;52.47;39.07;;;7.50;99.90;;;;;;5095014;28;20178;-65
2021/03/04 05:07:07;;;;;;;61.27;41.70;;;7.60;99.90;;;;;;5094515;28;20249;-65
2021/03/04 05:09:32;;;;;;;49.60;36.87;;;7.60;99.90;;;;;;5094736;28;20165;-65
2021/03/04 05:11:58;;;;;;;54.00;39.40;;;7.70;99.90;;;;;;5094494;28;20161;-65
2021/03/04 05:14:23;;;;;;;56.43;40.77;;;7.70;99.90;;;;;;5094394;28;20526;-65
2021/03/04 05:16:49;;;;;;;47.53;38.43;;;7.80;99.90;;;;;;5094005;28;20163;-65
2021/03/04 05:19:14;;;;;;;55.63;40.17;;;7.80;99.90;;;;;;5094461;28;20181;-65
2021/03/04 05:21:40;;;;;;;56.23;38.43;;;7.90;99.90;;;;;;5094336;28;20500;-65
2021/03/04 05:24:06;;;;;;;56.63;41.93;;;7.90;99.90;;;;;;5094410;28;20161;-65
2021/03/04 05:26:31;;;;;;;57.43;39.87;;;7.90;99.90;;;;;;5094229;28;20158;-66
2021/03/04 05:28:57;;;;;;;51.80;38.63;;;7.90;99.90;;;;;;5092874;28;20162;-65
2021/03/04 05:31:23;;;;;;;57.37;41.07;;;7.90;99.90;;;;;;5094395;28;20170;-65
2021/03/04 05:33:48;;;;;;;51.47;39.70;;;7.80;99.90;;;;;;5093684;28;20163;-65
2021/03/04 05:36:14;;;;;;;58.47;39.57;;;7.80;99.90;;;;;;5093778;28;20201;-65
2021/03/04 05:38:39;;;;;;;65.07;42.20;;;7.80;99.90;;;;;;5094034;28;20227;-65
2021/03/04 05:41:07;;;;;;;61.13;43.07;;;7.80;99.90;;;;;;5093355;28;20195;-65
2021/03/04 05:43:37;;;;;;;54.40;41.17;;;7.70;99.90;;;;;;5093948;28;20173;-65
2021/03/04 05:46:02;;;;;;;62.00;45.07;;;7.70;99.90;;;;;;5093936;28;20464;-65
2021/03/04 05:48:29;;;;;;;54.57;41.20;;;7.70;99.90;;;;;;5092537;28;20926;-65
2021/03/04 05:50:57;;;;;;;64.30;45.17;;;7.80;99.90;;;;;;5093551;28;20519;-65
2021/03/04 05:53:23;;;;;;;59.10;44.50;;;7.80;99.90;;;;;;5092727;28;20400;-65
2021/03/04 05:55:49;;;;;;;63.20;40.67;;;7.80;99.90;;;;;;5092379;28;20437;-65
2021/03/04 05:58:15;;;;;;;60.10;41.30;;;7.70;99.90;;;;;;5093654;28;20908;-65
2021/03/04 06:00:42;;;;;;;60.07;44.77;;;7.70;99.90;;;;;;5093637;28;20173;-65
2021/03/04 06:03:08;;;;;;;56.07;40.50;;;7.70;99.90;;;;;;5092420;28;20399;-65
2021/03/04 06:05:35;;;;;;;56.43;42.53;;;7.70;99.90;;;;;;5092450;28;20490;-65
2021/03/04 06:08:03;;;;;;;57.97;44.10;;;7.70;99.90;;;;;;5092240;28;20401;-65
2021/03/04 06:10:29;;;;;;;65.10;45.90;;;7.70;99.90;;;;;;5093532;28;20407;-65
2021/03/04 06:12:55;;;;;;;57.67;45.93;;;7.80;99.90;;;;;;5093414;28;20821;-65
2021/03/04 06:15:22;;;;;;;62.87;46.47;;;7.80;99.90;;;;;;5092110;28;20505;-65
2021/03/04 06:17:57;;;;;;;59.23;44.87;;;7.80;99.90;;;;;;5092079;28;20418;-65
2021/03/04 06:20:23;;;;;;;70.53;48.37;;;7.90;99.90;;;;;;5093865;28;21092;-65
2021/03/04 06:22:50;;;;;;;75.37;51.97;;;7.90;99.90;;;;;;5092486;28;20892;-65
2021/03/04 06:25:16;;;;;;;74.40;50.70;;;8.00;99.90;;;;;;5092004;28;20415;-65
2021/03/04 06:27:46;;;;;;;73.33;50.50;;;8.10;99.90;;;;;;5093521;28;20758;-65
2021/03/04 06:30:15;;;;;;;76.10;53.27;;;8.10;99.90;;;;;;5092243;28;20513;-65
2021/03/04 06:32:53;;;;;;;67.43;53.50;;;8.10;99.90;;;;;;5093289;28;20391;-65
2021/03/04 06:35:19;;;;;;;78.67;53.40;;;8.20;99.90;;;;;;5093074;28;20463;-65
2021/03/04 06:37:45;;;;;;;70.20;53.17;;;8.20;99.90;;;;;;5093426;28;20401;-65
2021/03/04 06:40:32;;;;;;;73.73;54.47;;;8.30;99.90;;;;;;5093192;28;20165;-65
2021/03/04 06:42:59;;;;;;;64.00;51.37;;;8.30;99.90;;;;;;5092244;28;20810;-65
2021/03/04 06:48:12;;;;;;;70.03;51.43;;;8.40;99.90;;;;;;5110828;27;20509;-65
2021/03/04 06:50:40;;;;;;;74.73;55.63;;;8.40;99.90;;;;;;5109421;28;20470;-65
2021/03/04 06:53:15;;;;;;;78.90;58.77;;;8.50;99.90;;;;;;5109330;28;20391;-65
2021/03/04 06:56:01;;;;;;;78.80;57.47;;;8.50;99.90;;;;;;5108929;28;20786;-65
2021/03/04 06:58:29;;;;;;;89.40;58.43;;;8.50;99.90;;;;;;5110105;28;20383;-65
2021/03/04 07:01:16;;;;;;;78.23;56.63;;;8.60;99.90;;;;;;5092102;28;20444;-65
2021/03/04 07:08:57;;;;;;;64.80;49.37;;;8.50;99.90;;;;;;5131352;27;20568;-66
2021/03/04 07:11:24;;;;;;;75.70;50.23;;;8.40;99.90;;;;;;5131420;28;20395;-66
2021/03/04 07:13:50;;;;;;;64.43;50.77;;;8.40;99.90;;;;;;5129989;28;20160;-66
2021/03/04 07:16:20;;;;;;;68.87;52.47;;;8.40;99.90;;;;;;5125802;28;20494;-66
2021/03/04 07:18:51;;;;;;;60.67;50.97;;;8.30;99.90;;;;;;5109265;28;20398;-66
2021/03/04 07:21:18;;;;;;;63.13;51.40;;;8.30;99.90;;;;;;5109427;28;20388;-66
2021/03/04 07:23:45;;;;;;;61.90;51.63;;;8.20;99.90;;;;;;5110603;28;20400;-66
2021/03/04 07:26:12;;;;;;;65.53;52.53;;;8.20;99.90;;;;;;5110478;28;20397;-66
2021/03/04 07:28:40;;;;;;;57.00;47.03;;;8.10;99.90;;;;;;5110646;28;20451;-66
2021/03/04 07:31:07;;;;;;;55.50;47.40;;;8.10;99.90;;;;;;5110475;28;20398;-66
2021/03/04 07:33:35;;;;;;;58.23;49.00;;;8.00;99.90;;;;;;5111291;28;20439;-66
2021/03/04 07:36:06;;;;;;;53.80;47.77;;;7.90;99.90;;;;;;5110652;28;20460;-66
2021/03/04 07:38:32;;;;;;;53.43;46.60;;;7.90;99.90;;;;;;5110556;28;20402;-66
2021/03/04 07:41:00;;;;;;;56.33;50.27;;;7.80;99.90;;;;;;5120283;28;20926;-66
2021/03/04 07:43:25;;;;;;;56.80;50.60;;;7.80;99.90;;;;;;5125466;27;20427;-66
2021/03/04 07:45:51;;;;;;;62.33;51.57;;;7.80;99.90;;;;;;5121826;28;20468;-66
2021/03/04 07:48:17;;;;;;;60.70;50.37;;;7.80;99.90;;;;;;5118818;28;20597;-66
2021/03/04 07:50:55;;;;;;;67.10;52.00;;;7.70;99.90;;;;;;5108693;28;20655;-66
2021/03/04 07:53:21;;;;;;;63.30;52.53;;;7.70;99.90;;;;;;5106677;28;20412;-66
2021/03/04 07:55:47;;;;;;;56.63;50.53;;;7.60;99.90;;;;;;5115776;28;20456;-66
2021/03/04 07:58:14;;;;;;;62.20;52.63;;;7.60;99.90;;;;;;5121600;27;20937;-66
2021/03/04 08:00:39;;;;;;;68.53;53.13;;;7.60;99.90;;;;;;5119788;28;20182;-66
2021/03/04 08:03:05;;;;;;;62.80;54.17;;;7.50;99.90;;;;;;5114399;28;20950;-66
2021/03/04 08:05:34;;;;;;;69.40;61.10;;;7.60;99.90;;;;;;5111630;28;20173;-66
2021/03/04 08:08:10;;;;;;;68.13;57.77;;;7.60;99.90;;;;;;5113421;27;20216;-66
2021/03/04 08:10:45;;;;;;;82.80;63.37;;;7.60;99.90;;;;;;5110314;28;20418;-66
2021/03/04 08:13:11;;;;;;;87.10;67.63;;;7.60;99.90;;;;;;5123128;28;20429;-66
2021/03/04 08:15:40;;;;;;;83.30;64.83;;;7.70;99.90;;;;;;5125079;27;20418;-66
2021/03/04 08:18:23;;;;;;;86.97;67.93;;;7.70;99.90;;;;;;5116575;28;20449;-66
2021/03/04 08:20:51;;;;;;;76.57;64.50;;;7.70;99.90;;;;;;5102317;28;20453;-66
2021/03/04 08:23:18;;;;;;;80.77;63.87;;;7.60;99.90;;;;;;5116198;28;20397;-66
2021/03/04 08:25:44;;;;;;;82.93;65.40;;;7.70;99.90;;;;;;5115600;28;20414;-66
2021/03/04 08:28:19;;;;;;;84.57;64.73;;;7.70;99.90;;;;;;5097106;28;20450;-66
2021/03/04 08:30:45;;;;;;;85.33;66.07;;;7.70;99.90;;;;;;5095712;28;20390;-66
2021/03/04 08:33:13;;;;;;;85.83;66.87;;;7.70;99.90;;;;;;5095523;28;20448;-66
2021/03/04 08:35:45;;;;;;;89.67;64.80;;;7.70;99.90;;;;;;5095857;28;20154;-66
2021/03/04 08:38:13;;;;;;;90.67;67.47;;;7.70;99.90;;;;;;5096564;28;20756;-66
2021/03/04 08:40:56;;;;;;;78.73;63.07;;;7.80;99.90;;;;;;5104485;28;20423;-66
2021/03/04 08:43:23;;;;;;;82.60;62.00;;;7.80;99.90;;;;;;5095495;28;20449;-66
2021/03/04 08:45:53;;;;;;;84.10;63.07;;;7.90;99.90;;;;;;5114571;28;20472;-66
2021/03/04 08:48:18;;;;;;;80.67;59.70;;;7.90;99.90;;;;;;5104037;28;21025;-66
2021/03/04 08:50:46;;;;;;;77.40;58.70;;;7.90;99.90;;;;;;5100220;28;20418;-66
2021/03/04 08:53:15;;;;;;;67.23;51.83;;;8.00;99.90;;;;;;5100153;28;20264;-66
2021/03/04 08:55:50;;;;;;;69.20;51.97;;;8.10;99.90;;;;;;5107752;28;20501;-66
2021/03/04 08:58:17;;;;;;;70.67;51.17;;;8.10;99.90;;;;;;5113864;28;20996;-66
2021/03/04 09:01:03;;;;;;;71.80;53.70;;;8.20;99.90;;;;;;5105735;27;20754;-65
2021/03/04 09:03:34;;;;;;;68.90;51.87;;;8.20;99.90;;;;;;5094691;28;20522;-66
2021/03/04 09:06:17;;;;;;;70.67;51.80;;;8.20;99.90;;;;;;5113936;28;20998;-66
2021/03/04 09:08:46;;;;;;;74.20;52.67;;;8.20;99.90;;;;;;5095338;28;20490;-66
2021/03/04 09:11:33;;;;;;;78.07;55.57;;;8.20;99.90;;;;;;5095076;28;20594;-66
2021/03/04 09:19:31;;;;;;;83.13;57.03;;;8.20;99.90;;;;;;5131734;27;20919;-65
2021/03/04 09:22:02;;;;;;;72.73;52.60;;;8.10;99.90;;;;;;5131877;27;20439;-65
2021/03/04 09:24:27;;;;;;;74.70;57.90;;;8.10;99.90;;;;;;5130319;28;20456;-65
2021/03/04 09:26:54;;;;;;;77.20;53.47;;;8.00;99.90;;;;;;5131756;27;20811;-65
2021/03/04 09:29:20;;;;;;;80.77;55.90;;;8.00;99.90;;;;;;5131255;27;20169;-65
2021/03/04 09:31:50;;;;;;;75.10;54.73;;;8.00;99.90;;;;;;5131109;28;20394;-65
2021/03/04 09:34:16;;;;;;;81.87;57.17;;;8.10;99.90;;;;;;5119414;28;20818;-65
2021/03/04 09:36:41;;;;;;;80.80;56.30;;;8.10;99.90;;;;;;5115632;28;20411;-65
2021/03/04 09:39:07;;;;;;;73.93;55.13;;;8.10;99.90;;;;;;5121839;28;20669;-65
2021/03/04 09:41:32;;;;;;;74.90;54.00;;;8.10;99.90;;;;;;5110527;28;20154;-65
2021/03/04 09:44:04;;;;;;;67.27;52.30;;;8.10;99.90;;;;;;5110518;28;20209;-65
2021/03/04 09:46:31;;;;;;;69.27;52.33;;;8.10;99.90;;;;;;5110340;28;20217;-65
2021/03/04 09:49:15;;;;;;;68.53;51.70;;;8.10;99.90;;;;;;5111094;28;20396;-64
2021/03/04 09:51:45;;;;;;;75.50;54.73;;;8.10;99.90;;;;;;5109591;28;20466;-64
2021/03/04 09:54:11;;;;;;;75.67;53.87;;;8.10;99.90;;;;;;5109847;28;20427;-64
2021/03/04 09:56:36;;;;;;;70.97;52.90;;;8.20;99.90;;;;;;5115788;28;20428;-64
2021/03/04 09:59:03;;;;;;;69.70;51.57;;;8.20;99.90;;;;;;5113447;27;20446;-64
2021/03/04 10:01:31;;;;;;;75.33;52.03;;;8.20;99.90;;;;;;5109259;28;20142;-64
2021/03/04 10:04:06;;;;;;;70.70;51.37;;;8.30;99.90;;;;;;5123263;28;20435;-64
2021/03/04 10:09:11;;;;;;;66.97;51.17;;;8.30;99.90;;;;;;5131527;27;20499;-65
2021/03/04 10:11:38;;;;;;;67.93;50.40;;;8.30;99.90;;;;;;5129505;27;20776;-65
2021/03/04 10:14:11;;;;;;;63.03;50.80;;;8.30;99.90;;;;;;5125611;28;20525;-65
2021/03/04 10:16:37;;;;;;;62.27;47.13;;;8.30;99.90;;;;;;5122061;28;20933;-65
2021/03/04 10:19:05;;;;;;;59.50;48.57;;;8.30;99.90;;;;;;5111069;28;20422;-65
2021/03/04 10:21:30;;;;;;;54.03;43.57;;;8.30;99.90;;;;;;5110796;28;20393;-65
2021/03/04 10:23:56;;;;;;;61.90;47.43;;;8.40;99.90;;;;;;5112787;28;20485;-65
2021/03/04 10:26:22;;;;;;;69.90;47.80;;;8.40;99.90;;;;;;5109205;28;20244;-65
2021/03/04 10:28:47;;;;;;;50.97;41.07;;;8.50;99.90;;;;;;5108597;28;20609;-65
2021/03/04 10:31:13;;;;;;;49.93;39.77;;;8.70;99.90;;;;;;5108658;28;20253;-65
2021/03/04 10:33:38;;;;;;;49.03;40.37;;;8.90;99.90;;;;;;5107203;28;20189;-66
2021/03/04 10:36:04;;;;;;;44.80;35.63;;;9.10;99.90;;;;;;5108707;28;20758;-65
2021/03/04 10:38:30;;;;;;;41.13;34.73;;;9.40;99.90;;;;;;5108402;28;20159;-65
2021/03/04 10:40:56;;;;;;;37.80;28.93;;;9.50;99.90;;;;;;5110153;28;20408;-65
2021/03/04 10:43:21;;;;;;;33.30;25.57;;;9.60;99.90;;;;;;5110592;28;20163;-65
2021/03/04 10:45:47;;;;;;;24.60;22.00;;;9.70;99.90;;;;;;5110202;28;20190;-65
2021/03/04 10:48:13;;;;;;;24.03;20.97;;;9.70;99.90;;;;;;5110126;28;20467;-65
2021/03/04 10:50:39;;;;;;;23.40;20.63;;;9.70;99.90;;;;;;5110192;28;20156;-65
2021/03/04 10:53:05;;;;;;;21.20;18.90;;;9.60;99.90;;;;;;5108954;28;20472;-65
2021/03/04 10:55:30;;;;;;;21.80;19.57;;;9.60;99.90;;;;;;5110262;28;20483;-65
2021/03/04 10:57:57;;;;;;;22.30;19.30;;;9.60;99.90;;;;;;5110753;28;20285;-65
2021/03/04 11:00:22;;;;;;;21.97;19.70;;;9.50;99.90;;;;;;5110468;28;20226;-65
2021/03/04 11:02:48;;;;;;;21.67;19.40;;;9.40;99.90;;;;;;5110001;28;20401;-65
2021/03/04 11:05:13;;;;;;;24.53;20.77;;;9.40;99.90;;;;;;5109979;28;20615;-65
2021/03/04 11:07:39;;;;;;;24.20;21.50;;;9.30;99.90;;;;;;5109787;28;20285;-65
2021/03/04 11:10:06;;;;;;;22.93;20.57;;;9.20;99.90;;;;;;5109913;28;20167;-65
2021/03/04 11:12:33;;;;;;;25.40;19.87;;;9.20;99.90;;;;;;5109865;28;20260;-65
2021/03/04 11:14:59;;;;;;;25.73;21.90;;;9.20;99.90;;;;;;5110276;28;20404;-65
2021/03/04 11:17:24;;;;;;;23.77;19.77;;;9.20;99.90;;;;;;5109751;28;20461;-65
2021/03/04 11:19:50;;;;;;;27.77;19.50;;;9.10;99.90;;;;;;5100192;28;20392;-65
2021/03/04 11:22:17;;;;;;;24.50;21.90;;;9.10;99.90;;;;;;5096237;28;20171;-65
2021/03/04 11:24:46;;;;;;;26.77;22.63;;;9.00;99.90;;;;;;5094789;28;20638;-65
2021/03/04 11:27:12;;;;;;;27.47;23.00;;;9.00;99.90;;;;;;5095957;28;20505;-65
2021/03/04 11:29:38;;;;;;;24.50;21.53;;;9.00;99.90;;;;;;5095916;28;20400;-65
2021/03/04 11:32:04;;;;;;;26.40;23.10;;;9.00;99.90;;;;;;5106342;28;20403;-65
2021/03/04 11:34:29;;;;;;;28.93;25.63;;;8.90;99.90;;;;;;5116327;28;20250;-65
2021/03/04 11:36:55;;;;;;;26.07;23.37;;;8.90;99.90;;;;;;5116375;28;20199;-65
2021/03/04 11:39:20;;;;;;;31.63;25.60;;;8.90;99.90;;;;;;5116062;27;20158;-65
2021/03/04 11:41:46;;;;;;;29.70;25.73;;;8.90;99.90;;;;;;5116277;28;20169;-65
2021/03/04 11:44:13;;;;;;;34.17;27.23;;;9.00;99.90;;;;;;5116275;28;20619;-65
2021/03/04 11:46:39;;;;;;;35.63;28.40;;;9.00;99.90;;;;;;5116108;28;20600;-65
2021/03/04 11:49:05;;;;;;;34.70;28.63;;;9.00;99.90;;;;;;5115256;28;20497;-65
2021/03/04 11:51:31;;;;;;;37.30;28.70;;;8.90;99.90;;;;;;5116006;28;20819;-65
2021/03/04 11:53:56;;;;;;;36.70;30.87;;;9.00;99.90;;;;;;5115914;28;20158;-65
2021/03/04 11:56:22;;;;;;;35.60;28.30;;;8.90;99.90;;;;;;5108374;28;20181;-65
2021/03/04 11:58:48;;;;;;;37.00;28.60;;;8.90;99.90;;;;;;5100545;28;20183;-65
2021/03/04 12:01:14;;;;;;;35.73;28.80;;;8.90;99.90;;;;;;5107947;28;20927;-65
2021/03/04 12:03:39;;;;;;;34.43;27.47;;;8.90;99.90;;;;;;5106811;28;20186;-65
2021/03/04 12:06:05;;;;;;;32.10;26.60;;;9.00;99.90;;;;;;5099515;28;20182;-66
2021/03/04 12:08:30;;;;;;;30.33;26.10;;;9.00;99.90;;;;;;5107926;28;20202;-65
2021/03/04 12:10:57;;;;;;;29.73;26.50;;;9.00;99.90;;;;;;5096843;28;20159;-66
2021/03/04 12:13:23;;;;;;;26.97;23.23;;;9.00;99.90;;;;;;5115475;28;20146;-65
2021/03/04 12:15:48;;;;;;;32.00;24.40;;;9.00;99.90;;;;;;5102433;27;20434;-65
2021/03/04 12:18:14;;;;;;;25.73;22.93;;;8.90;99.90;;;;;;5095110;28;20423;-67
2021/03/04 12:20:39;;;;;;;26.10;21.53;;;8.90;99.90;;;;;;5096970;28;20158;-66
2021/03/04 12:23:06;;;;;;;27.20;22.00;;;8.80;99.90;;;;;;5108650;28;20181;-65
2021/03/04 12:25:34;;;;;;;27.30;22.20;;;8.80;99.90;;;;;;5099170;28;20550;-65
2021/03/04 12:28:00;;;;;;;28.50;22.77;;;8.70;99.90;;;;;;5106513;28;20546;-65
2021/03/04 12:30:25;;;;;;;30.33;23.13;;;8.60;99.90;;;;;;5100985;28;20944;-65
2021/03/04 12:32:51;;;;;;;33.63;24.93;;;8.70;99.90;;;;;;5109739;28;20177;-65
2021/03/04 12:35:17;;;;;;;34.80;27.20;;;8.60;99.90;;;;;;5111621;28;20202;-65
2021/03/04 12:37:43;;;;;;;30.00;23.83;;;8.60;99.90;;;;;;5094551;28;20177;-66
2021/03/04 12:40:09;;;;;;;31.67;22.27;;;8.50;99.90;;;;;;5094231;28;20619;-66
2021/03/04 12:42:35;;;;;;;24.03;19.93;;;8.50;99.90;;;;;;5094744;28;20799;-66
2021/03/04 12:45:01;;;;;;;25.50;20.70;;;8.50;99.90;;;;;;5100865;28;20460;-66
2021/03/04 12:47:27;;;;;;;20.90;17.27;;;8.40;99.90;;;;;;5101594;28;20690;-66
2021/03/04 12:49:53;;;;;;;17.27;15.47;;;8.30;99.90;;;;;;5105943;28;20423;-66
2021/03/04 12:52:20;;;;;;;15.50;13.90;;;8.30;99.90;;;;;;5107566;28;20533;-65